createdAt,value
2022-10-09T00:00:00.542Z,22.06
2022-10-09T00:00:31.984Z,22.06
2022-10-09T00:01:03.375Z,22.05
2022-10-09T00:01:34.759Z,22.05
2022-10-09T00:02:06.231Z,22.05
2022-10-09T00:02:37.695Z,22.04
2022-10-09T00:03:09.109Z,22.04
2022-10-09T00:03:40.520Z,22.03
2022-10-09T00:04:11.914Z,22.03
2022-10-09T00:04:43.310Z,22.03
2022-10-09T00:05:14.850Z,22.03
2022-10-09T00:05:46.254Z,22.02
2022-10-09T00:06:17.647Z,22.03
2022-10-09T00:06:49.029Z,22.03
2022-10-09T00:07:20.415Z,22.02
2022-10-09T00:07:51.825Z,22.02
2022-10-09T00:08:23.216Z,22.01
2022-10-09T00:08:54.603Z,22.01
2022-10-09T00:09:25.992Z,22.00
2022-10-09T00:09:57.381Z,22.00
2022-10-09T00:10:28.881Z,22.00
2022-10-09T00:11:00.269Z,21.99
2022-10-09T00:11:31.652Z,21.99
2022-10-09T00:12:03.066Z,21.98
2022-10-09T00:12:34.457Z,21.99
2022-10-09T00:13:05.845Z,21.99
2022-10-09T00:13:37.232Z,21.97
2022-10-09T00:14:08.644Z,21.97
2022-10-09T00:14:40.033Z,21.98
2022-10-09T00:15:11.427Z,21.97
2022-10-09T00:15:42.841Z,21.97
2022-10-09T00:16:14.309Z,21.98
2022-10-09T00:16:45.828Z,21.96
2022-10-09T00:17:17.299Z,21.97
2022-10-09T00:17:48.680Z,21.95
2022-10-09T00:18:20.083Z,21.95
2022-10-09T00:18:51.476Z,21.95
2022-10-09T00:19:22.871Z,21.95
2022-10-09T00:19:54.246Z,21.93
2022-10-09T00:20:25.652Z,21.94
2022-10-09T00:20:57.090Z,21.93
2022-10-09T00:21:28.489Z,21.93
2022-10-09T00:21:59.886Z,21.93
2022-10-09T00:22:31.288Z,21.93
2022-10-09T00:23:02.705Z,21.93
2022-10-09T00:23:34.094Z,21.93
2022-10-09T00:24:05.506Z,21.93
2022-10-09T00:24:36.905Z,21.92
2022-10-09T00:25:08.299Z,21.92
2022-10-09T00:25:39.809Z,21.91
2022-10-09T00:26:11.217Z,21.92
2022-10-09T00:26:42.633Z,21.91
2022-10-09T00:27:14.032Z,21.91
2022-10-09T00:27:45.424Z,21.90
2022-10-09T00:28:16.876Z,21.89
2022-10-09T00:28:48.352Z,21.90
2022-10-09T00:29:19.809Z,21.90
2022-10-09T00:29:51.198Z,21.89
2022-10-09T00:30:22.620Z,21.88
2022-10-09T00:30:54.119Z,21.88
2022-10-09T00:31:25.536Z,21.87
2022-10-09T00:31:56.926Z,21.88
2022-10-09T00:32:28.322Z,21.87
2022-10-09T00:32:59.714Z,21.87
2022-10-09T00:33:31.119Z,21.87
2022-10-09T00:34:02.532Z,21.87
2022-10-09T00:34:33.921Z,21.86
2022-10-09T00:35:05.318Z,21.86
2022-10-09T00:35:36.715Z,21.85
2022-10-09T00:36:08.137Z,21.86
2022-10-09T00:36:39.519Z,21.86
2022-10-09T00:37:10.928Z,21.85
2022-10-09T00:37:42.337Z,21.84
2022-10-09T00:38:13.752Z,21.85
2022-10-09T00:38:45.135Z,21.84
2022-10-09T00:39:16.544Z,21.84
2022-10-09T00:39:47.937Z,21.84
2022-10-09T00:40:19.329Z,21.84
2022-10-09T00:40:51.590Z,21.83
2022-10-09T00:41:23.225Z,21.82
2022-10-09T00:41:54.643Z,21.82
2022-10-09T00:42:26.027Z,21.81
2022-10-09T00:42:57.412Z,21.81
2022-10-09T00:43:28.802Z,21.82
2022-10-09T00:44:00.199Z,21.81
2022-10-09T00:44:31.603Z,21.80
2022-10-09T00:45:02.995Z,21.80
2022-10-09T00:45:34.378Z,21.80
2022-10-09T00:46:05.824Z,21.79
2022-10-09T00:46:37.421Z,21.79
2022-10-09T00:47:08.805Z,21.79
2022-10-09T00:47:40.199Z,21.79
2022-10-09T00:48:11.607Z,21.78
2022-10-09T00:48:42.996Z,21.79
2022-10-09T00:49:14.417Z,21.79
2022-10-09T00:49:45.805Z,21.78
2022-10-09T00:50:17.197Z,21.78
2022-10-09T00:50:48.607Z,21.78
2022-10-09T00:51:20.002Z,21.77
2022-10-09T00:51:51.438Z,21.77
2022-10-09T00:52:22.819Z,21.77
2022-10-09T00:52:54.204Z,21.77
2022-10-09T00:53:25.611Z,21.76
2022-10-09T00:53:57.014Z,21.76
2022-10-09T00:54:28.411Z,21.77
2022-10-09T00:54:59.796Z,21.76
2022-10-09T00:55:31.190Z,21.76
2022-10-09T00:56:02.609Z,21.74
2022-10-09T00:56:34.255Z,21.74
2022-10-09T00:57:05.911Z,21.75
2022-10-09T00:57:37.316Z,21.74
2022-10-09T00:58:08.724Z,21.74
2022-10-09T00:58:40.135Z,21.73
2022-10-09T00:59:11.529Z,21.75
2022-10-09T00:59:42.941Z,21.73
2022-10-09T01:00:14.332Z,21.74
2022-10-09T01:00:45.739Z,21.73
2022-10-09T01:01:17.179Z,21.72
2022-10-09T01:01:48.831Z,21.72
2022-10-09T01:02:20.461Z,21.72
2022-10-09T01:02:52.280Z,21.72
2022-10-09T01:03:24.013Z,21.72
2022-10-09T01:03:55.403Z,21.72
2022-10-09T01:04:26.844Z,21.71
2022-10-09T01:04:58.232Z,21.71
2022-10-09T01:05:29.640Z,21.71
2022-10-09T01:06:01.107Z,21.71
2022-10-09T01:06:32.515Z,21.70
2022-10-09T01:07:03.919Z,21.70
2022-10-09T01:07:35.381Z,21.70
2022-10-09T01:08:06.773Z,21.70
2022-10-09T01:08:38.178Z,21.70
2022-10-09T01:09:09.569Z,21.70
2022-10-09T01:09:40.958Z,21.70
2022-10-09T01:10:12.352Z,21.69
2022-10-09T01:10:43.758Z,21.69
2022-10-09T01:11:15.154Z,21.69
2022-10-09T01:11:46.548Z,21.69
2022-10-09T01:12:17.936Z,21.69
2022-10-09T01:12:49.557Z,21.69
2022-10-09T01:13:21.162Z,21.68
2022-10-09T01:13:52.551Z,21.68
2022-10-09T01:14:23.967Z,21.67
2022-10-09T01:14:55.371Z,21.67
2022-10-09T01:15:26.765Z,21.67
2022-10-09T01:15:58.221Z,21.67
2022-10-09T01:16:29.629Z,21.67
2022-10-09T01:17:01.012Z,21.66
2022-10-09T01:17:32.396Z,21.66
2022-10-09T01:18:03.883Z,21.66
2022-10-09T01:18:35.270Z,21.65
2022-10-09T01:19:06.663Z,21.66
2022-10-09T01:19:38.045Z,21.65
2022-10-09T01:20:09.432Z,21.65
2022-10-09T01:20:40.851Z,21.66
2022-10-09T01:21:12.249Z,21.65
2022-10-09T01:21:43.635Z,21.64
2022-10-09T01:22:15.033Z,21.64
2022-10-09T01:22:46.745Z,21.65
2022-10-09T01:23:18.469Z,21.64
2022-10-09T01:23:49.860Z,21.63
2022-10-09T01:24:21.251Z,21.64
2022-10-09T01:24:52.631Z,21.63
2022-10-09T01:25:24.017Z,21.63
2022-10-09T01:25:55.432Z,21.63
2022-10-09T01:26:26.811Z,21.63
2022-10-09T01:26:58.201Z,21.63
2022-10-09T01:27:29.589Z,21.63
2022-10-09T01:28:00.986Z,21.63
2022-10-09T01:28:32.458Z,21.62
2022-10-09T01:29:03.901Z,21.62
2022-10-09T01:29:35.316Z,21.62
2022-10-09T01:30:06.719Z,21.62
2022-10-09T01:30:38.172Z,21.62
2022-10-09T01:31:09.681Z,21.62
2022-10-09T01:31:41.133Z,21.61
2022-10-09T01:32:12.544Z,21.61
2022-10-09T01:32:43.939Z,21.60
2022-10-09T01:33:15.348Z,21.61
2022-10-09T01:33:46.801Z,21.61
2022-10-09T01:34:18.204Z,21.61
2022-10-09T01:34:49.592Z,21.61
2022-10-09T01:35:20.978Z,21.61
2022-10-09T01:35:52.379Z,21.60
2022-10-09T01:36:23.768Z,21.59
2022-10-09T01:36:55.190Z,21.60
2022-10-09T01:37:26.594Z,21.60
2022-10-09T01:37:58.017Z,21.59
2022-10-09T01:38:29.404Z,21.59
2022-10-09T01:39:00.819Z,21.59
2022-10-09T01:39:32.204Z,21.58
2022-10-09T01:40:03.591Z,21.59
2022-10-09T01:40:34.976Z,21.58
2022-10-09T01:41:06.387Z,21.58
2022-10-09T01:41:37.803Z,21.57
2022-10-09T01:42:09.193Z,21.57
2022-10-09T01:42:40.585Z,21.57
2022-10-09T01:43:12.002Z,21.58
2022-10-09T01:43:43.484Z,21.57
2022-10-09T01:44:14.870Z,21.57
2022-10-09T01:44:46.285Z,21.56
2022-10-09T01:45:17.690Z,21.57
2022-10-09T01:45:49.085Z,21.56
2022-10-09T01:46:20.505Z,21.56
2022-10-09T01:46:51.922Z,21.56
2022-10-09T01:47:23.314Z,21.56
2022-10-09T01:47:54.710Z,21.55
2022-10-09T01:48:26.105Z,21.56
2022-10-09T01:48:57.623Z,21.55
2022-10-09T01:49:29.004Z,21.54
2022-10-09T01:50:00.395Z,21.55
2022-10-09T01:50:31.780Z,21.54
2022-10-09T01:51:03.163Z,21.54
2022-10-09T01:51:34.558Z,21.54
2022-10-09T01:52:05.971Z,21.53
2022-10-09T01:52:41.156Z,21.53
2022-10-09T01:53:12.921Z,21.53
2022-10-09T01:53:44.316Z,21.53
2022-10-09T01:54:15.861Z,21.52
2022-10-09T01:54:47.250Z,21.53
2022-10-09T01:55:18.634Z,21.53
2022-10-09T01:55:50.043Z,21.53
2022-10-09T01:56:21.424Z,21.52
2022-10-09T01:56:52.817Z,21.52
2022-10-09T01:57:24.377Z,21.52
2022-10-09T01:57:55.776Z,21.52
2022-10-09T01:58:27.177Z,21.51
2022-10-09T01:58:58.576Z,21.51
2022-10-09T01:59:30.049Z,21.51
2022-10-09T02:00:01.430Z,21.51
2022-10-09T02:00:32.816Z,21.50
2022-10-09T02:01:04.224Z,21.51
2022-10-09T02:01:35.757Z,21.50
2022-10-09T02:02:07.314Z,21.50
2022-10-09T02:02:38.874Z,21.50
2022-10-09T02:03:10.318Z,21.50
2022-10-09T02:03:41.723Z,21.49
2022-10-09T02:04:13.112Z,21.48
2022-10-09T02:04:44.548Z,21.49
2022-10-09T02:05:15.965Z,21.49
2022-10-09T02:05:47.359Z,21.50
2022-10-09T02:06:18.748Z,21.49
2022-10-09T02:06:50.149Z,21.47
2022-10-09T02:07:21.550Z,21.48
2022-10-09T02:07:52.941Z,21.48
2022-10-09T02:08:24.318Z,21.48
2022-10-09T02:08:55.717Z,21.47
2022-10-09T02:09:27.115Z,21.47
2022-10-09T02:09:58.577Z,21.46
2022-10-09T02:10:30.055Z,21.48
2022-10-09T02:11:01.444Z,21.47
2022-10-09T02:11:32.836Z,21.47
2022-10-09T02:12:04.231Z,21.47
2022-10-09T02:12:35.612Z,21.46
2022-10-09T02:13:07.003Z,21.47
2022-10-09T02:13:38.391Z,21.46
2022-10-09T02:14:09.776Z,21.47
2022-10-09T02:14:41.187Z,21.46
2022-10-09T02:15:12.630Z,21.47
2022-10-09T02:15:44.065Z,21.46
2022-10-09T02:16:15.572Z,21.47
2022-10-09T02:16:46.972Z,21.45
2022-10-09T02:17:18.355Z,21.46
2022-10-09T02:17:49.739Z,21.46
2022-10-09T02:18:21.140Z,21.45
2022-10-09T02:18:52.523Z,21.45
2022-10-09T02:19:23.928Z,21.46
2022-10-09T02:19:55.319Z,21.46
2022-10-09T02:20:26.801Z,21.45
2022-10-09T02:20:58.285Z,21.45
2022-10-09T02:21:29.702Z,21.45
2022-10-09T02:22:01.108Z,21.45
2022-10-09T02:22:32.498Z,21.44
2022-10-09T02:23:03.888Z,21.44
2022-10-09T02:23:35.273Z,21.44
2022-10-09T02:24:06.700Z,21.44
2022-10-09T02:24:38.082Z,21.44
2022-10-09T02:25:09.425Z,21.43
2022-10-09T02:25:40.863Z,21.44
2022-10-09T02:26:12.247Z,21.43
2022-10-09T02:26:43.636Z,21.42
2022-10-09T02:27:15.017Z,21.43
2022-10-09T02:27:46.437Z,21.43
2022-10-09T02:28:17.888Z,21.43
2022-10-09T02:28:49.333Z,21.42
2022-10-09T02:29:20.766Z,21.42
2022-10-09T02:29:52.165Z,21.43
2022-10-09T02:30:23.569Z,21.42
2022-10-09T02:30:55.008Z,21.42
2022-10-09T02:31:26.497Z,21.40
2022-10-09T02:31:57.947Z,21.41
2022-10-09T02:32:29.352Z,21.41
2022-10-09T02:33:00.744Z,21.40
2022-10-09T02:33:32.134Z,21.40
2022-10-09T02:34:03.549Z,21.40
2022-10-09T02:34:34.937Z,21.40
2022-10-09T02:35:06.334Z,21.40
2022-10-09T02:35:37.864Z,21.38
2022-10-09T02:36:09.255Z,21.38
2022-10-09T02:36:40.641Z,21.39
2022-10-09T02:37:12.103Z,21.39
2022-10-09T02:37:43.486Z,21.40
2022-10-09T02:38:14.872Z,21.38
2022-10-09T02:38:46.265Z,21.38
2022-10-09T02:39:17.662Z,21.38
2022-10-09T02:39:49.045Z,21.39
2022-10-09T02:40:20.448Z,21.38
2022-10-09T02:40:51.903Z,21.37
2022-10-09T02:41:23.302Z,21.37
2022-10-09T02:41:54.691Z,21.37
2022-10-09T02:42:26.099Z,21.37
2022-10-09T02:42:57.509Z,21.37
2022-10-09T02:43:28.899Z,21.37
2022-10-09T02:44:00.283Z,21.36
2022-10-09T02:44:31.687Z,21.37
2022-10-09T02:45:03.072Z,21.37
2022-10-09T02:45:34.476Z,21.36
2022-10-09T02:46:05.963Z,21.36
2022-10-09T02:46:37.407Z,21.36
2022-10-09T02:47:08.824Z,21.36
2022-10-09T02:47:40.208Z,21.35
2022-10-09T02:48:11.597Z,21.36
2022-10-09T02:48:43.001Z,21.36
2022-10-09T02:49:14.397Z,21.35
2022-10-09T02:49:45.795Z,21.35
2022-10-09T02:50:17.180Z,21.35
2022-10-09T02:50:48.707Z,21.36
2022-10-09T02:51:20.092Z,21.34
2022-10-09T02:51:51.481Z,21.35
2022-10-09T02:52:22.869Z,21.35
2022-10-09T02:52:54.267Z,21.34
2022-10-09T02:53:25.652Z,21.34
2022-10-09T02:53:57.042Z,21.34
2022-10-09T02:54:28.462Z,21.34
2022-10-09T02:54:59.872Z,21.33
2022-10-09T02:55:31.272Z,21.34
2022-10-09T02:56:02.749Z,21.34
2022-10-09T02:56:38.632Z,21.34
2022-10-09T02:57:10.434Z,21.33
2022-10-09T02:57:41.824Z,21.34
2022-10-09T02:58:13.220Z,21.33
2022-10-09T02:58:44.603Z,21.33
2022-10-09T02:59:15.987Z,21.33
2022-10-09T02:59:47.375Z,21.33
2022-10-09T03:00:18.785Z,21.33
2022-10-09T03:00:50.405Z,21.32
2022-10-09T03:01:21.841Z,21.32
2022-10-09T03:01:53.413Z,21.32
2022-10-09T03:02:25.014Z,21.32
2022-10-09T03:02:56.484Z,21.32
2022-10-09T03:03:27.906Z,21.32
2022-10-09T03:03:59.288Z,21.31
2022-10-09T03:04:30.677Z,21.32
2022-10-09T03:05:02.095Z,21.32
2022-10-09T03:05:33.481Z,21.32
2022-10-09T03:06:04.959Z,21.32
2022-10-09T03:06:36.372Z,21.31
2022-10-09T03:07:07.758Z,21.31
2022-10-09T03:07:39.141Z,21.31
2022-10-09T03:08:10.531Z,21.31
2022-10-09T03:08:41.921Z,21.31
2022-10-09T03:09:13.337Z,21.30
2022-10-09T03:09:44.732Z,21.29
2022-10-09T03:10:16.119Z,21.30
2022-10-09T03:10:47.593Z,21.30
2022-10-09T03:11:18.985Z,21.29
2022-10-09T03:11:50.374Z,21.29
2022-10-09T03:12:21.763Z,21.30
2022-10-09T03:12:53.152Z,21.29
2022-10-09T03:13:24.536Z,21.28
2022-10-09T03:13:55.925Z,21.30
2022-10-09T03:14:27.313Z,21.29
2022-10-09T03:14:58.705Z,21.28
2022-10-09T03:15:30.109Z,21.29
2022-10-09T03:16:01.582Z,21.29
2022-10-09T03:16:33.067Z,21.29
2022-10-09T03:17:04.467Z,21.28
2022-10-09T03:17:35.896Z,21.27
2022-10-09T03:18:07.298Z,21.27
2022-10-09T03:18:38.705Z,21.28
2022-10-09T03:19:10.090Z,21.27
2022-10-09T03:19:41.503Z,21.27
2022-10-09T03:20:12.884Z,21.27
2022-10-09T03:20:44.269Z,21.26
2022-10-09T03:21:15.728Z,21.26
2022-10-09T03:21:47.116Z,21.26
2022-10-09T03:22:18.496Z,21.27
2022-10-09T03:22:50.043Z,21.26
2022-10-09T03:23:21.568Z,21.25
2022-10-09T03:23:52.953Z,21.26
2022-10-09T03:24:24.349Z,21.25
2022-10-09T03:24:55.736Z,21.25
2022-10-09T03:25:27.144Z,21.25
2022-10-09T03:25:58.666Z,21.26
2022-10-09T03:26:30.060Z,21.24
2022-10-09T03:27:01.440Z,21.25
2022-10-09T03:27:32.832Z,21.25
2022-10-09T03:28:04.314Z,21.25
2022-10-09T03:28:35.838Z,21.25
2022-10-09T03:29:07.269Z,21.24
2022-10-09T03:29:38.676Z,21.25
2022-10-09T03:30:10.081Z,21.24
2022-10-09T03:30:41.476Z,21.24
2022-10-09T03:31:22.558Z,21.24
2022-10-09T03:32:04.345Z,21.23
2022-10-09T03:32:35.757Z,21.23
2022-10-09T03:33:07.144Z,21.23
2022-10-09T03:33:38.532Z,21.23
2022-10-09T03:34:09.931Z,21.22
2022-10-09T03:34:41.310Z,21.23
2022-10-09T03:35:12.703Z,21.21
2022-10-09T03:35:44.096Z,21.23
2022-10-09T03:36:15.519Z,21.22
2022-10-09T03:36:46.908Z,21.22
2022-10-09T03:37:18.292Z,21.22
2022-10-09T03:37:49.676Z,21.21
2022-10-09T03:38:21.072Z,21.21
2022-10-09T03:38:52.458Z,21.20
2022-10-09T03:39:23.861Z,21.21
2022-10-09T03:39:55.250Z,21.21
2022-10-09T03:40:26.633Z,21.21
2022-10-09T03:40:58.018Z,21.20
2022-10-09T03:41:29.457Z,21.20
2022-10-09T03:42:00.848Z,21.19
2022-10-09T03:42:32.253Z,21.20
2022-10-09T03:43:03.659Z,21.20
2022-10-09T03:43:35.048Z,21.20
2022-10-09T03:44:06.430Z,21.18
2022-10-09T03:44:37.823Z,21.19
2022-10-09T03:45:09.228Z,21.19
2022-10-09T03:45:40.612Z,21.18
2022-10-09T03:46:12.206Z,21.18
2022-10-09T03:46:43.711Z,21.17
2022-10-09T03:47:15.169Z,21.17
2022-10-09T03:47:46.593Z,21.17
2022-10-09T03:48:17.986Z,21.19
2022-10-09T03:48:49.367Z,21.17
2022-10-09T03:49:20.776Z,21.18
2022-10-09T03:49:52.162Z,21.18
2022-10-09T03:50:23.545Z,21.18
2022-10-09T03:50:54.946Z,21.18
2022-10-09T03:51:26.387Z,21.17
2022-10-09T03:51:57.783Z,21.17
2022-10-09T03:52:29.166Z,21.16
2022-10-09T03:53:00.560Z,21.16
2022-10-09T03:53:31.939Z,21.17
2022-10-09T03:54:03.327Z,21.16
2022-10-09T03:54:34.738Z,21.16
2022-10-09T03:55:06.177Z,21.16
2022-10-09T03:55:37.569Z,21.16
2022-10-09T03:56:08.979Z,21.16
2022-10-09T03:56:40.518Z,21.15
2022-10-09T03:57:11.905Z,21.16
2022-10-09T03:57:43.295Z,21.15
2022-10-09T03:58:14.680Z,21.15
2022-10-09T03:58:46.068Z,21.15
2022-10-09T03:59:17.451Z,21.14
2022-10-09T03:59:48.842Z,21.14
2022-10-09T04:00:20.243Z,21.14
2022-10-09T04:00:51.681Z,21.13
2022-10-09T04:01:23.317Z,21.14
2022-10-09T04:01:54.775Z,21.14
2022-10-09T04:02:26.198Z,21.14
2022-10-09T04:02:57.750Z,21.13
2022-10-09T04:03:29.166Z,21.13
2022-10-09T04:04:00.572Z,21.13
2022-10-09T04:04:32.018Z,21.13
2022-10-09T04:05:03.409Z,21.12
2022-10-09T04:05:34.791Z,21.12
2022-10-09T04:06:06.191Z,21.12
2022-10-09T04:06:37.696Z,21.12
2022-10-09T04:07:09.086Z,21.12
2022-10-09T04:07:40.482Z,21.12
2022-10-09T04:08:11.888Z,21.11
2022-10-09T04:08:43.276Z,21.11
2022-10-09T04:09:14.665Z,21.11
2022-10-09T04:09:46.064Z,21.11
2022-10-09T04:10:17.456Z,21.11
2022-10-09T04:10:48.900Z,21.10
2022-10-09T04:11:20.357Z,21.10
2022-10-09T04:11:51.796Z,21.09
2022-10-09T04:12:23.225Z,21.09
2022-10-09T04:12:54.638Z,21.08
2022-10-09T04:13:26.025Z,21.08
2022-10-09T04:13:57.442Z,21.09
2022-10-09T04:14:28.838Z,21.08
2022-10-09T04:15:00.247Z,21.08
2022-10-09T04:15:31.650Z,21.08
2022-10-09T04:16:03.097Z,21.07
2022-10-09T04:16:34.569Z,21.07
2022-10-09T04:17:06.021Z,21.07
2022-10-09T04:17:37.443Z,21.07
2022-10-09T04:18:08.843Z,21.07
2022-10-09T04:18:40.252Z,21.07
2022-10-09T04:19:11.636Z,21.07
2022-10-09T04:19:43.021Z,21.07
2022-10-09T04:20:14.444Z,21.07
2022-10-09T04:20:45.852Z,21.06
2022-10-09T04:21:17.241Z,21.06
2022-10-09T04:21:48.645Z,21.06
2022-10-09T04:22:20.078Z,21.05
2022-10-09T04:22:51.729Z,21.05
2022-10-09T04:23:23.287Z,21.05
2022-10-09T04:23:54.675Z,21.05
2022-10-09T04:24:26.056Z,21.05
2022-10-09T04:24:57.445Z,21.06
2022-10-09T04:25:28.827Z,21.05
2022-10-09T04:26:00.219Z,21.04
2022-10-09T04:26:31.618Z,21.05
2022-10-09T04:27:03.034Z,21.04
2022-10-09T04:27:34.565Z,21.04
2022-10-09T04:28:05.979Z,21.04
2022-10-09T04:28:37.443Z,21.04
2022-10-09T04:29:08.859Z,21.04
2022-10-09T04:29:40.247Z,21.03
2022-10-09T04:30:11.636Z,21.03
2022-10-09T04:30:43.032Z,21.04
2022-10-09T04:31:14.581Z,21.03
2022-10-09T04:31:46.116Z,21.03
2022-10-09T04:32:17.543Z,21.03
2022-10-09T04:32:49.258Z,21.03
2022-10-09T04:33:20.893Z,21.02
2022-10-09T04:33:52.287Z,21.02
2022-10-09T04:34:23.667Z,21.03
2022-10-09T04:34:55.081Z,21.02
2022-10-09T04:35:26.480Z,21.03
2022-10-09T04:35:57.909Z,21.03
2022-10-09T04:36:29.313Z,21.03
2022-10-09T04:37:00.697Z,21.02
2022-10-09T04:37:32.109Z,21.02
2022-10-09T04:38:03.605Z,21.03
2022-10-09T04:38:34.987Z,21.02
2022-10-09T04:39:06.379Z,21.01
2022-10-09T04:39:37.776Z,21.01
2022-10-09T04:40:09.164Z,21.01
2022-10-09T04:40:40.556Z,21.01
2022-10-09T04:41:11.955Z,21.01
2022-10-09T04:41:43.345Z,21.00
2022-10-09T04:42:14.754Z,21.01
2022-10-09T04:42:46.338Z,21.00
2022-10-09T04:43:17.874Z,21.00
2022-10-09T04:43:49.273Z,21.01
2022-10-09T04:44:20.655Z,21.00
2022-10-09T04:44:52.057Z,20.99
2022-10-09T04:45:23.508Z,21.00
2022-10-09T04:45:54.977Z,20.99
2022-10-09T04:46:26.395Z,20.99
2022-10-09T04:46:57.779Z,20.98
2022-10-09T04:47:29.166Z,20.98
2022-10-09T04:48:00.576Z,20.98
2022-10-09T04:48:32.032Z,20.99
2022-10-09T04:49:03.416Z,20.97
2022-10-09T04:49:34.821Z,20.97
2022-10-09T04:50:06.208Z,20.97
2022-10-09T04:50:37.656Z,20.97
2022-10-09T04:51:09.078Z,20.97
2022-10-09T04:51:40.473Z,20.97
2022-10-09T04:52:11.860Z,20.96
2022-10-09T04:52:43.256Z,20.97
2022-10-09T04:53:14.665Z,20.97
2022-10-09T04:53:46.184Z,20.97
2022-10-09T04:54:17.568Z,20.97
2022-10-09T04:54:48.962Z,20.96
2022-10-09T04:55:20.353Z,20.96
2022-10-09T04:55:51.749Z,20.96
2022-10-09T04:56:23.128Z,20.95
2022-10-09T04:56:54.535Z,20.96
2022-10-09T04:57:25.925Z,20.95
2022-10-09T04:57:57.316Z,20.95
2022-10-09T04:58:28.705Z,20.95
2022-10-09T04:59:00.260Z,20.95
2022-10-09T04:59:31.660Z,20.94
2022-10-09T05:00:03.049Z,20.94
2022-10-09T05:00:34.445Z,20.94
2022-10-09T05:01:05.901Z,20.94
2022-10-09T05:01:38.618Z,20.94
2022-10-09T05:02:10.303Z,20.94
2022-10-09T05:02:41.712Z,20.93
2022-10-09T05:03:13.102Z,20.93
2022-10-09T05:03:44.505Z,20.94
2022-10-09T05:04:15.934Z,20.93
2022-10-09T05:04:47.322Z,20.94
2022-10-09T05:05:18.720Z,20.93
2022-10-09T05:05:50.109Z,20.93
2022-10-09T05:06:21.505Z,20.93
2022-10-09T05:06:52.889Z,20.93
2022-10-09T05:07:24.278Z,20.94
2022-10-09T05:07:55.660Z,20.92
2022-10-09T05:08:27.049Z,20.93
2022-10-09T05:08:58.480Z,20.92
2022-10-09T05:09:29.911Z,20.91
2022-10-09T05:10:01.328Z,20.92
2022-10-09T05:10:32.744Z,20.92
2022-10-09T05:11:04.135Z,20.92
2022-10-09T05:11:39.218Z,20.92
2022-10-09T05:12:13.167Z,20.92
2022-10-09T05:12:44.557Z,20.91
2022-10-09T05:13:15.946Z,20.91
2022-10-09T05:13:47.356Z,20.91
2022-10-09T05:14:18.743Z,20.91
2022-10-09T05:14:50.199Z,20.91
2022-10-09T05:15:21.588Z,20.91
2022-10-09T05:15:53.004Z,20.90
2022-10-09T05:16:24.454Z,20.91
2022-10-09T05:17:13.097Z,20.91
2022-10-09T05:17:45.812Z,20.90
2022-10-09T05:18:17.263Z,20.89
2022-10-09T05:18:48.655Z,20.89
2022-10-09T05:19:20.048Z,20.89
2022-10-09T05:19:51.560Z,20.89
2022-10-09T05:20:22.949Z,20.89
2022-10-09T05:20:54.338Z,20.89
2022-10-09T05:21:25.723Z,20.89
2022-10-09T05:21:57.149Z,20.89
2022-10-09T05:22:28.561Z,20.89
2022-10-09T05:22:59.944Z,20.88
2022-10-09T05:23:31.343Z,20.88
2022-10-09T05:24:03.828Z,20.89
2022-10-09T05:24:37.504Z,20.87
2022-10-09T05:25:09.106Z,20.88
2022-10-09T05:25:40.498Z,20.87
2022-10-09T05:26:11.891Z,20.87
2022-10-09T05:26:43.284Z,20.88
2022-10-09T05:27:14.673Z,20.88
2022-10-09T05:27:46.055Z,20.87
2022-10-09T05:28:17.453Z,20.87
2022-10-09T05:28:48.971Z,20.87
2022-10-09T05:29:20.459Z,20.86
2022-10-09T05:29:51.849Z,20.87
2022-10-09T05:30:23.261Z,20.87
2022-10-09T05:30:54.665Z,20.86
2022-10-09T05:31:26.183Z,20.86
2022-10-09T05:31:57.643Z,20.86
2022-10-09T05:32:29.064Z,20.86
2022-10-09T05:33:00.482Z,20.86
2022-10-09T05:33:31.902Z,20.85
2022-10-09T05:34:03.289Z,20.86
2022-10-09T05:34:34.676Z,20.85
2022-10-09T05:35:06.055Z,20.85
2022-10-09T05:35:37.538Z,20.85
2022-10-09T05:36:08.929Z,20.85
2022-10-09T05:36:40.318Z,20.85
2022-10-09T05:37:11.701Z,20.85
2022-10-09T05:37:43.090Z,20.86
2022-10-09T05:38:14.478Z,20.84
2022-10-09T05:38:45.865Z,20.83
2022-10-09T05:39:17.257Z,20.83
2022-10-09T05:39:48.653Z,20.83
2022-10-09T05:40:20.054Z,20.83
2022-10-09T05:40:51.605Z,20.83
2022-10-09T05:41:23.005Z,20.82
2022-10-09T05:41:54.393Z,20.83
2022-10-09T05:42:25.775Z,20.82
2022-10-09T05:42:57.179Z,20.81
2022-10-09T05:43:28.576Z,20.81
2022-10-09T05:43:59.961Z,20.82
2022-10-09T05:44:31.355Z,20.81
2022-10-09T05:45:02.749Z,20.81
2022-10-09T05:45:34.224Z,20.81
2022-10-09T05:46:05.773Z,20.82
2022-10-09T05:46:37.253Z,20.80
2022-10-09T05:47:08.659Z,20.81
2022-10-09T05:47:40.046Z,20.80
2022-10-09T05:48:11.450Z,20.79
2022-10-09T05:48:42.831Z,20.79
2022-10-09T05:49:14.221Z,20.79
2022-10-09T05:49:45.617Z,20.79
2022-10-09T05:50:17.001Z,20.79
2022-10-09T05:50:48.407Z,20.79
2022-10-09T05:51:19.980Z,20.79
2022-10-09T05:51:51.370Z,20.79
2022-10-09T05:52:22.768Z,20.79
2022-10-09T05:52:54.161Z,20.79
2022-10-09T05:53:25.545Z,20.79
2022-10-09T05:53:56.923Z,20.78
2022-10-09T05:54:28.303Z,20.78
2022-10-09T05:54:59.707Z,20.78
2022-10-09T05:55:31.121Z,20.77
2022-10-09T05:56:03.760Z,20.77
2022-10-09T05:56:35.411Z,20.77
2022-10-09T05:57:06.805Z,20.77
2022-10-09T05:57:38.207Z,20.77
2022-10-09T05:58:09.608Z,20.76
2022-10-09T05:58:41.001Z,20.76
2022-10-09T05:59:12.408Z,20.77
2022-10-09T05:59:43.809Z,20.76
2022-10-09T06:00:15.186Z,20.77
2022-10-09T06:00:46.645Z,20.77
2022-10-09T06:01:18.190Z,20.76
2022-10-09T06:01:49.731Z,20.76
2022-10-09T06:02:21.275Z,20.76
2022-10-09T06:02:53.182Z,20.76
2022-10-09T06:03:24.802Z,20.76
2022-10-09T06:03:56.187Z,20.76
2022-10-09T06:04:27.595Z,20.74
2022-10-09T06:04:58.992Z,20.76
2022-10-09T06:05:30.401Z,20.75
2022-10-09T06:06:01.792Z,20.75
2022-10-09T06:06:33.182Z,20.75
2022-10-09T06:07:04.674Z,20.75
2022-10-09T06:07:36.056Z,20.74
2022-10-09T06:08:07.440Z,20.75
2022-10-09T06:08:38.829Z,20.74
2022-10-09T06:09:10.221Z,20.76
2022-10-09T06:09:41.617Z,20.74
2022-10-09T06:10:13.006Z,20.74
2022-10-09T06:10:44.421Z,20.73
2022-10-09T06:11:15.864Z,20.74
2022-10-09T06:11:47.380Z,20.74
2022-10-09T06:12:18.863Z,20.74
2022-10-09T06:12:50.590Z,20.74
2022-10-09T06:13:22.094Z,20.74
2022-10-09T06:13:53.482Z,20.74
2022-10-09T06:14:24.871Z,20.74
2022-10-09T06:14:56.263Z,20.73
2022-10-09T06:15:27.676Z,20.73
2022-10-09T06:15:59.080Z,20.73
2022-10-09T06:16:30.498Z,20.73
2022-10-09T06:17:01.995Z,20.73
2022-10-09T06:17:33.412Z,20.73
2022-10-09T06:18:04.803Z,20.72
2022-10-09T06:18:36.196Z,20.72
2022-10-09T06:19:07.615Z,20.72
2022-10-09T06:19:39.007Z,20.71
2022-10-09T06:20:10.397Z,20.72
2022-10-09T06:20:41.799Z,20.72
2022-10-09T06:21:13.194Z,20.72
2022-10-09T06:21:44.604Z,20.71
2022-10-09T06:22:16.034Z,20.71
2022-10-09T06:22:47.721Z,20.71
2022-10-09T06:23:19.281Z,20.72
2022-10-09T06:23:50.693Z,20.71
2022-10-09T06:24:25.847Z,20.71
2022-10-09T06:24:59.921Z,20.71
2022-10-09T06:25:31.323Z,20.71
2022-10-09T06:26:02.749Z,20.70
2022-10-09T06:26:34.137Z,20.71
2022-10-09T06:27:05.540Z,20.71
2022-10-09T06:27:37.039Z,20.71
2022-10-09T06:28:08.469Z,20.70
2022-10-09T06:28:39.939Z,20.71
2022-10-09T06:29:11.388Z,20.70
2022-10-09T06:29:42.776Z,20.70
2022-10-09T06:30:14.179Z,20.70
2022-10-09T06:30:45.613Z,20.70
2022-10-09T06:31:17.094Z,20.70
2022-10-09T06:31:48.575Z,20.70
2022-10-09T06:32:19.963Z,20.70
2022-10-09T06:32:51.929Z,20.71
2022-10-09T06:33:23.477Z,20.71
2022-10-09T06:33:54.892Z,20.70
2022-10-09T06:34:26.272Z,20.70
2022-10-09T06:34:57.737Z,20.70
2022-10-09T06:35:29.127Z,20.70
2022-10-09T06:36:09.494Z,20.70
2022-10-09T06:36:41.580Z,20.70
2022-10-09T06:37:12.980Z,20.70
2022-10-09T06:37:44.368Z,20.70
2022-10-09T06:38:15.779Z,20.71
2022-10-09T06:38:47.176Z,20.72
2022-10-09T06:39:18.569Z,20.71
2022-10-09T06:39:49.987Z,20.71
2022-10-09T06:40:21.377Z,20.71
2022-10-09T06:40:52.829Z,20.71
2022-10-09T06:41:24.269Z,20.72
2022-10-09T06:41:55.670Z,20.71
2022-10-09T06:42:27.051Z,20.72
2022-10-09T06:42:58.441Z,20.71
2022-10-09T06:43:29.968Z,20.72
2022-10-09T06:44:01.358Z,20.71
2022-10-09T06:44:32.751Z,20.71
2022-10-09T06:45:04.141Z,20.71
2022-10-09T06:45:35.592Z,20.72